EW2869 Osimo IT current weather conditions

sailwx.info

Wind from 327 at 1 knots gusting 3

Air temperature 11.1° C
Dewpoint 11.0° C

Last reported at 2019-Dec-09 17:09 UTC.
Time now 2019-Dec-09 17:44 UTC

Location: N 43°31' E 013°30'.
View on Google Maps.

See reports from other nearby stations

  
Tides and Currents Weather Stations Pressure Air Temp Water Temp Dewpoint Dewpoint Depression Visibility Wind Speed Wind Dir Waves Ship Positions
date/time (UTC)wind fromknots sea level pressurealtimeterstation pressurevisibilityair tempwater tempwave heightnotes
2019-Dec-09 17:09 327 1 gusting 3 11.1
2019-Dec-09 17:03 352 0 gusting 3 10.6
2019-Dec-09 17:00 347 0 gusting 3 10.6
2019-Dec-09 16:54 346 0 gusting 4 10.6
2019-Dec-09 16:48 339 1 gusting 5 10.6
2019-Dec-09 16:45 326 1 gusting 5 10.6
2019-Dec-09 16:39 326 2 gusting 4 10.6
2019-Dec-09 16:33 087 1 gusting 3 10.6
2019-Dec-09 16:30 100 0 gusting 5 10.6
2019-Dec-09 16:24 140 1 gusting 5 10.6
2019-Dec-09 16:18 171 1 gusting 3 10.6
2019-Dec-09 16:15 157 0 gusting 3 10.6
2019-Dec-09 16:09 185 0 gusting 2 10.6
2019-Dec-09 16:03 020 10.6
2019-Dec-09 16:00 006 0 gusting 4 10.6
2019-Dec-09 15:54 351 1 gusting 6 10.6
2019-Dec-09 15:48 315 2 gusting 6 10.6
2019-Dec-09 15:45 292 1 gusting 5 10.6
2019-Dec-09 15:39 305 1 gusting 5 10.6
2019-Dec-09 15:33 302 2 gusting 6 10.6
2019-Dec-09 15:30 287 2 gusting 6 10.6
2019-Dec-09 15:24 282 3 gusting 9 10.6
2019-Dec-09 15:18 310 3 gusting 9 10.6
2019-Dec-09 15:15 310 5 gusting 9 11.1
2019-Dec-09 15:09 293 3 gusting 13 11.1
2019-Dec-09 15:03 300 2 gusting 14 12.2
2019-Dec-09 15:00 298 6 gusting 14 13.3
2019-Dec-09 14:54 235 13.9
2019-Dec-09 14:48 217 0 gusting 1 13.9
2019-Dec-09 14:45 219 13.3
2019-Dec-09 14:39 240 13.3
2019-Dec-09 14:33 113 0 gusting 2 13.3
2019-Dec-09 14:30 062 0 gusting 2 13.3
2019-Dec-09 14:24 051 0 gusting 2 13.3
2019-Dec-09 14:18 011 0 gusting 1 13.9
2019-Dec-09 14:15 005 13.9
2019-Dec-09 14:09 036 13.9
2019-Dec-09 14:03 050 1 gusting 3 13.9
2019-Dec-09 14:00 051 1 gusting 3 14.4
2019-Dec-09 13:54 056 0 gusting 3 14.4
2019-Dec-09 13:48 061 2 gusting 3 14.4
2019-Dec-09 13:45 054 2 gusting 3 14.4
2019-Dec-09 13:39 054 0 gusting 3 15.0
2019-Dec-09 13:33 034 1 gusting 3 15.0
2019-Dec-09 13:30 026 2 gusting 3 15.6
2019-Dec-09 13:24 038 0 gusting 3 15.6
2019-Dec-09 13:18 055 16.1
2019-Dec-09 13:15 059 0 gusting 5 16.1
2019-Dec-09 13:09 072 1 gusting 5 16.7
2019-Dec-09 13:03 023 0 gusting 1 17.2
2019-Dec-09 13:00 020 17.2
2019-Dec-09 12:54 084 0 gusting 1 17.2
2019-Dec-09 12:48 165 17.8
2019-Dec-09 12:45 171 17.8
2019-Dec-09 12:39 128 17.8
2019-Dec-09 12:33 122 17.8
2019-Dec-09 12:30 123 0 gusting 3 17.8
2019-Dec-09 12:24 117 0 gusting 3 18.3
2019-Dec-09 12:18 111 1 gusting 4 19.4
2019-Dec-09 12:15 102 1 gusting 4 19.4
2019-Dec-09 12:09 100 1 gusting 4 20.0
2019-Dec-09 12:03 098 0 gusting 3 19.4
2019-Dec-09 12:00 089 0 gusting 3 18.3
2019-Dec-09 11:54 078 1 gusting 3 17.8
2019-Dec-09 11:48 052 1 gusting 3 19.4
2019-Dec-09 11:45 052 1 gusting 3 19.4
2019-Dec-09 11:39 084 1 gusting 3 20.0
2019-Dec-09 11:33 099 1 gusting 3 19.4
2019-Dec-09 11:30 123 0 gusting 3 18.9
2019-Dec-09 11:24 114 16.7
2019-Dec-09 11:18 105 1 gusting 3 15.6
2019-Dec-09 11:15 099 0 gusting 2 15.6
2019-Dec-09 11:09 099 0 gusting 3 15.6
2019-Dec-09 11:03 115 0 gusting 3 15.0
2019-Dec-09 11:00 114 1 gusting 5 15.0
2019-Dec-09 10:54 106 1 gusting 5 15.0
2019-Dec-09 10:48 092 1 gusting 6 15.0
2019-Dec-09 10:45 103 1 gusting 6 15.0
2019-Dec-09 10:39 116 3 gusting 6 15.0
2019-Dec-09 10:33 131 0 gusting 6 15.0
2019-Dec-09 10:30 134 1 gusting 6 15.6
2019-Dec-09 10:24 142 2 gusting 7 15.6
2019-Dec-09 10:18 143 2 gusting 7 15.6
2019-Dec-09 10:15 119 1 gusting 4 15.6
2019-Dec-09 10:09 110 1 gusting 5 15.6
2019-Dec-09 10:03 114 1 gusting 5 16.1
2019-Dec-09 10:00 114 1 gusting 5 16.1
2019-Dec-09 09:54 109 1 gusting 6 16.7
2019-Dec-09 09:48 109 3 gusting 6 17.2
2019-Dec-09 09:45 111 3 gusting 6 17.8
2019-Dec-09 09:39 097 1 gusting 6 17.8
2019-Dec-09 09:33 088 1 gusting 6 18.3
2019-Dec-09 09:30 081 3 gusting 6 17.8
2019-Dec-09 09:24 074 1 gusting 6 18.3
2019-Dec-09 09:18 082 1 gusting 4 18.3
2019-Dec-09 09:15 077 0 gusting 3 18.3
2019-Dec-09 09:09 088 1 gusting 5 17.2
2019-Dec-09 09:03 065 1 gusting 6 17.2
2019-Dec-09 09:00 059 2 gusting 6 17.2
2019-Dec-09 08:54 077 1 gusting 4 16.7
2019-Dec-09 08:48 079 1 gusting 4 16.1
2019-Dec-09 08:45 081 1 gusting 6 15.6
2019-Dec-09 08:39 056 2 gusting 6 15.6
2019-Dec-09 08:33 070 3 gusting 5 15.0
2019-Dec-09 08:30 078 3 gusting 5 15.0
2019-Dec-09 08:24 063 2 gusting 6 13.9
2019-Dec-09 08:18 059 2 gusting 6 13.9
2019-Dec-09 08:15 066 1 gusting 5 13.9
2019-Dec-09 08:09 060 3 gusting 5 15.0
2019-Dec-09 08:03 063 1 gusting 4 15.6
2019-Dec-09 08:00 074 0 gusting 3 15.6
2019-Dec-09 07:54 111 0 gusting 3 15.6
2019-Dec-09 07:48 111 15.0
2019-Dec-09 07:45 105 14.4
2019-Dec-09 07:39 100 1 gusting 3 14.4
2019-Dec-09 07:33 120 1 gusting 3 13.9
2019-Dec-09 07:30 131 13.9
2019-Dec-09 07:24 103 0 gusting 3 12.8
2019-Dec-09 07:18 067 1 gusting 3 12.2
2019-Dec-09 07:15 071 1 gusting 3 12.2
2019-Dec-09 07:09 067 0 gusting 3 12.2
2019-Dec-09 07:03 054 1 gusting 3 12.2
2019-Dec-09 07:00 051 0 gusting 2 12.2
2019-Dec-09 06:54 034 11.7
2019-Dec-09 06:48 018 0 gusting 1 11.1
2019-Dec-09 06:45 008 11.1
2019-Dec-09 06:39 020 11.1
2019-Dec-09 06:33 078 0 gusting 3 11.1
2019-Dec-09 06:30 095 1 gusting 3 11.1
2019-Dec-09 06:24 100 1 gusting 4 11.1
2019-Dec-09 06:18 087 1 gusting 6 11.1
2019-Dec-09 06:15 087 1 gusting 6 11.1
2019-Dec-09 06:09 114 1 gusting 5 11.1
2019-Dec-09 06:03 136 1 gusting 3 11.1
2019-Dec-09 06:00 122 0 gusting 2 10.6
2019-Dec-09 05:54 109 0 gusting 3 11.1
2019-Dec-09 05:48 125 1 gusting 3 11.1
2019-Dec-09 05:45 132 1 gusting 3 11.7
2019-Dec-09 05:39 109 1 gusting 4 11.7
2019-Dec-09 05:33 076 1 gusting 4 11.7
2019-Dec-09 05:30 074 1 gusting 3 11.7
2019-Dec-09 05:24 073 1 gusting 2 11.7
2019-Dec-09 05:18 030 0 gusting 2 11.1
2019-Dec-09 05:15 039 1 gusting 2 11.1
2019-Dec-09 05:09 095 11.1
2019-Dec-09 05:03 340 0 gusting 2 10.6
2019-Dec-09 05:00 283 10.6
2019-Dec-09 04:54 316 10.6
2019-Dec-09 04:48 074 10.6
2019-Dec-09 04:45 103 0 gusting 4 10.6
2019-Dec-09 04:39 082 1 gusting 4 10.6
2019-Dec-09 04:33 062 1 gusting 4 10.6
2019-Dec-09 04:30 081 1 gusting 3 11.1
2019-Dec-09 04:24 134 11.1
2019-Dec-09 04:18 147 10.6
2019-Dec-09 04:15 158 10.6
2019-Dec-09 04:09 123 10.6
2019-Dec-09 04:03 049 10.6
2019-Dec-09 04:00 033 0 gusting 1 10.6
2019-Dec-09 03:54 058 0 gusting 3 10.6
2019-Dec-09 03:48 104 0 gusting 3 11.1
2019-Dec-09 03:45 173 0 gusting 2 11.1
2019-Dec-09 03:39 195 11.1
2019-Dec-09 03:33 225 0 gusting 1 11.1
2019-Dec-09 03:30 225 11.1
2019-Dec-09 03:24 208 11.7
2019-Dec-09 03:18 182 0 gusting 1 11.7
2019-Dec-09 02:57 181 11.7
2019-Dec-09 02:54 181 11.7
2019-Dec-09 02:45 181 0 gusting 1 11.1
2019-Dec-09 02:27 181 12.2
2019-Dec-09 02:18 181 0 gusting 1 11.7
2019-Dec-09 02:15 181 0 gusting 1 11.1
2019-Dec-09 02:09 181 11.1
2019-Dec-09 02:03 181 11.1
2019-Dec-09 02:00 181 10.6
2019-Dec-09 01:54 181 10.6
2019-Dec-09 01:48 166 10.6
2019-Dec-09 01:45 150 0 gusting 1 10.6
2019-Dec-09 01:39 189 10.0
2019-Dec-09 01:33 225 10.0
2019-Dec-09 01:30 225 10.0
2019-Dec-09 01:24 203 10.0
2019-Dec-09 01:18 196 0 gusting 1 10.0
2019-Dec-09 01:15 193 0 gusting 1 9.4
2019-Dec-09 01:09 181 9.4
2019-Dec-09 01:03 163 9.4
2019-Dec-09 01:00 147 9.4
2019-Dec-09 00:54 146 10.0
2019-Dec-09 00:48 148 1 gusting 2 10.0
2019-Dec-09 00:45 146 0 gusting 1 10.0
2019-Dec-09 00:39 172 10.6
2019-Dec-09 00:33 166 10.6
2019-Dec-09 00:30 153 10.6
2019-Dec-09 00:24 166 10.0
2019-Dec-09 00:18 181 0 gusting 1 10.0
2019-Dec-09 00:15 181 10.0
2019-Dec-09 00:09 181 10.0
2019-Dec-09 00:03 149 10.0
2019-Dec-09 00:00 135 10.0
2019-Dec-08 23:54 090 10.0
2019-Dec-08 23:48 112 9.4
2019-Dec-08 23:45 149 10.0
2019-Dec-08 23:39 148 10.0
2019-Dec-08 23:33 135 10.0
2019-Dec-08 23:30 135 0 gusting 1 10.0
2019-Dec-08 23:24 173 10.0
2019-Dec-08 23:18 220 10.0
2019-Dec-08 23:15 226 10.0
2019-Dec-08 23:09 225 10.0
2019-Dec-08 23:03 189 10.0
2019-Dec-08 23:00 168 10.0
2019-Dec-08 22:54 170 10.0
2019-Dec-08 22:48 181 10.0
2019-Dec-08 22:45 181 10.6
2019-Dec-08 22:39 163 10.6
2019-Dec-08 22:33 158 10.6
2019-Dec-08 22:30 159 0 gusting 2 10.6
2019-Dec-08 22:24 161 0 gusting 2 10.6
2019-Dec-08 22:18 166 0 gusting 3 10.6
2019-Dec-08 22:15 163 1 gusting 3 10.6
2019-Dec-08 22:09 179 0 gusting 2 10.6
2019-Dec-08 22:03 181 0 gusting 4 11.1
2019-Dec-08 22:00 187 0 gusting 4 11.1
2019-Dec-08 21:54 167 2 gusting 4 11.1
2019-Dec-08 21:48 129 0 gusting 5 11.1
2019-Dec-08 21:45 120 1 gusting 5 11.1
2019-Dec-08 21:39 117 0 gusting 8 11.7
2019-Dec-08 21:33 128 4 gusting 8 11.1
2019-Dec-08 21:30 138 2 gusting 6 11.7
2019-Dec-08 21:24 132 1 gusting 6 11.7
2019-Dec-08 21:18 119 2 gusting 6 11.7
2019-Dec-08 21:15 103 1 gusting 4 11.7
2019-Dec-08 21:09 106 1 gusting 4 11.7
2019-Dec-08 21:03 123 0 gusting 6 11.7
2019-Dec-08 21:00 124 1 gusting 6 11.7
2019-Dec-08 20:54 136 3 gusting 6 11.7
2019-Dec-08 20:48 116 1 gusting 6 11.7
2019-Dec-08 20:45 085 1 gusting 6 11.7
2019-Dec-08 20:39 064 1 gusting 5 11.7
2019-Dec-08 20:33 118 1 gusting 5 11.7
2019-Dec-08 20:30 118 11.7
2019-Dec-08 20:24 100 1 gusting 6 11.7
2019-Dec-08 20:18 104 1 gusting 6 11.7
2019-Dec-08 20:15 105 1 gusting 6 11.7
2019-Dec-08 20:09 105 1 gusting 5 11.7
2019-Dec-08 20:03 102 2 gusting 6 11.7
2019-Dec-08 20:00 106 1 gusting 6 11.7
2019-Dec-08 19:54 111 1 gusting 6 11.7
2019-Dec-08 19:48 103 3 gusting 6 11.7
2019-Dec-08 19:45 108 1 gusting 6 11.7
2019-Dec-08 19:39 120 1 gusting 4 11.1
2019-Dec-08 19:33 123 0 gusting 4 11.1
2019-Dec-08 19:30 118 0 gusting 3 11.1
2019-Dec-08 19:24 087 0 gusting 3 11.1
2019-Dec-08 19:18 085 1 gusting 3 10.6
2019-Dec-08 19:15 090 0 gusting 3 10.6
2019-Dec-08 19:09 090 1 gusting 3 10.6
2019-Dec-08 19:03 107 0 gusting 2 10.6
2019-Dec-08 19:00 119 10.6
2019-Dec-08 18:54 117 0 gusting 3 10.6
2019-Dec-08 18:48 136 1 gusting 3 10.6
2019-Dec-08 18:45 137 0 gusting 1 10.6
2019-Dec-08 18:39 151 10.6
2019-Dec-08 18:33 178 0 gusting 1 10.0
2019-Dec-08 18:30 181 0 gusting 1 10.0
2019-Dec-08 18:24 171 10.0
2019-Dec-08 18:18 176 0 gusting 1 10.0
2019-Dec-08 18:15 165 10.0
2019-Dec-08 18:09 160 0 gusting 1 10.6
2019-Dec-08 18:03 152 0 gusting 1 10.6
2019-Dec-08 18:00 137 0 gusting 1 10.6
2019-Dec-08 17:54 155 10.6
2019-Dec-08 17:48 181 0 gusting 1 10.6
2019-Dec-08 17:45 181 10.6
2019-Dec-08 17:39 181 10.6
2019-Dec-08 17:33 135 10.6
2019-Dec-08 17:30 135 10.6
2019-Dec-08 17:24 135 0 gusting 1 10.6
2019-Dec-08 17:18 143 11.1
2019-Dec-08 17:15 146 11.1
2019-Dec-08 17:09 160 11.1
2019-Dec-08 17:03 181 11.1
2019-Dec-08 17:00 178 11.1
2019-Dec-08 16:54 164 11.1
2019-Dec-08 16:48 174 10.6
2019-Dec-08 16:45 181 10.6
2019-Dec-08 16:39 169 10.6
2019-Dec-08 16:33 056 0 gusting 1 11.1
2019-Dec-08 16:30 045 11.1
2019-Dec-08 16:24 045 0 gusting 1 11.1
2019-Dec-08 16:18 045 10.6
2019-Dec-08 16:15 045 0 gusting 1 10.6
2019-Dec-08 16:09 045 11.1
2019-Dec-08 16:03 045 0 gusting 1 11.1
2019-Dec-08 16:00 045 11.1
2019-Dec-08 15:54 045 11.1
2019-Dec-08 15:48 045 11.7
2019-Dec-08 15:45 045 0 gusting 1 11.7
2019-Dec-08 15:39 045 11.7
2019-Dec-08 15:33 045 11.7
2019-Dec-08 15:30 045 11.7
2019-Dec-08 15:24 046 11.7
2019-Dec-08 15:18 045 12.2
2019-Dec-08 15:15 045 0 gusting 1 12.2
2019-Dec-08 15:09 045 0 gusting 1 12.2
2019-Dec-08 15:03 045 12.8
2019-Dec-08 15:00 045 0 gusting 1 12.8
2019-Dec-08 14:54 045 13.3
2019-Dec-08 14:48 358 13.9
2019-Dec-08 14:45 330 14.4
2019-Dec-08 14:39 312 0 gusting 1 14.4
2019-Dec-08 14:33 320 14.4
2019-Dec-08 14:30 317 14.4
2019-Dec-08 14:24 332 0 gusting 2 15.0
2019-Dec-08 14:18 321 15.0
2019-Dec-08 14:15 321 0 gusting 3 15.0
2019-Dec-08 14:09 316 1 gusting 3 15.0
2019-Dec-08 14:03 323 15.6
2019-Dec-08 14:00 334 0 gusting 3 15.0
2019-Dec-08 13:54 323 1 gusting 4 15.6
2019-Dec-08 13:48 310 1 gusting 4 15.6
2019-Dec-08 13:45 314 1 gusting 4 15.6
2019-Dec-08 13:39 323 1 gusting 4 15.6
2019-Dec-08 13:33 309 1 gusting 5 15.6
2019-Dec-08 13:30 315 1 gusting 6 15.6
2019-Dec-08 13:24 322 1 gusting 6 15.6
2019-Dec-08 13:18 302 2 gusting 5 15.6
2019-Dec-08 13:15 309 2 gusting 4 15.6
2019-Dec-08 13:09 333 1 gusting 4 16.1
2019-Dec-08 13:03 320 1 gusting 6 15.6
2019-Dec-08 13:00 322 1 gusting 6 15.6
2019-Dec-08 12:54 315 3 gusting 6 15.6
2019-Dec-08 12:48 323 2 gusting 6 15.6
2019-Dec-08 12:45 323 1 gusting 6 15.6
2019-Dec-08 12:39 329 2 gusting 5 15.6
2019-Dec-08 12:33 336 1 gusting 5 16.1
2019-Dec-08 12:30 337 1 gusting 5 16.1
2019-Dec-08 12:24 318 2 gusting 4 16.1
2019-Dec-08 12:18 316 1 gusting 4 16.1
2019-Dec-08 12:15 325 1 gusting 5 16.1
2019-Dec-08 12:09 310 1 gusting 5 16.1
2019-Dec-08 12:03 326 1 gusting 5 16.1
2019-Dec-08 12:00 341 2 gusting 6 16.1
2019-Dec-08 11:54 353 1 gusting 6 16.1
2019-Dec-08 11:48 326 1 gusting 6 16.1
2019-Dec-08 11:45 323 1 gusting 6 16.1
2019-Dec-08 11:39 343 1 gusting 5 16.1
2019-Dec-08 11:33 357 1 gusting 5 16.1
2019-Dec-08 11:30 350 2 gusting 5 16.1
2019-Dec-08 11:24 345 1 gusting 3 16.7
2019-Dec-08 11:18 344 1 gusting 4 16.1
2019-Dec-08 11:15 333 1 gusting 4 16.1
2019-Dec-08 11:09 309 1 gusting 3 16.7
2019-Dec-08 11:03 278 0 gusting 3 16.7
2019-Dec-08 11:00 303 0 gusting 3 16.7
2019-Dec-08 10:54 330 0 gusting 3 16.1
2019-Dec-08 10:48 309 1 gusting 3 15.6
2019-Dec-08 10:45 291 15.6
2019-Dec-08 10:39 269 0 gusting 4 15.0
2019-Dec-08 10:33 274 1 gusting 4 15.0
2019-Dec-08 10:30 289 1 gusting 4 14.4
2019-Dec-08 10:24 305 1 gusting 4 14.4
2019-Dec-08 10:18 306 1 gusting 6 13.9
2019-Dec-08 10:15 302 1 gusting 6 13.9
2019-Dec-08 10:09 275 1 gusting 6 13.9
2019-Dec-08 10:03 299 1 gusting 6 13.3
2019-Dec-08 10:00 305 1 gusting 6 13.3
2019-Dec-08 09:54 289 1 gusting 6 13.3
2019-Dec-08 09:48 264 2 gusting 6 13.3
2019-Dec-08 09:45 258 3 gusting 6 13.3
2019-Dec-08 09:39 275 2 gusting 6 12.8
2019-Dec-08 09:33 282 2 gusting 7 12.8
2019-Dec-08 09:30 278 3 gusting 7 12.8
2019-Dec-08 09:24 283 1 gusting 6 12.8
2019-Dec-08 09:18 272 2 gusting 6 12.2
2019-Dec-08 09:15 275 2 gusting 6 12.2
2019-Dec-08 09:09 281 2 gusting 6 12.2
2019-Dec-08 09:03 268 3 gusting 6 11.7
2019-Dec-08 09:00 257 3 gusting 6 11.7
2019-Dec-08 08:54 275 2 gusting 6 11.7
2019-Dec-08 08:48 299 3 gusting 6 11.7
2019-Dec-08 08:45 300 3 gusting 6 11.1
2019-Dec-08 08:39 265 3 gusting 6 11.1
2019-Dec-08 08:33 250 3 gusting 6 10.6
2019-Dec-08 08:30 256 1 gusting 6 10.6
2019-Dec-08 08:24 281 2 gusting 6 10.6
2019-Dec-08 08:18 277 3 gusting 6 10.6
2019-Dec-08 08:15 273 3 gusting 6 10.6
2019-Dec-08 08:09 267 3 gusting 6 10.6
2019-Dec-08 08:03 270 2 gusting 6 10.6
2019-Dec-08 08:00 264 1 gusting 6 10.6
2019-Dec-08 07:54 260 2 gusting 4 10.6
2019-Dec-08 07:48 312 10.6
2019-Dec-08 07:45 311 10.0
2019-Dec-08 07:39 251 8.9
2019-Dec-08 07:33 181 7.8
2019-Dec-08 07:30 181 7.8
2019-Dec-08 07:24 194 7.8
2019-Dec-08 07:18 225 7.8
2019-Dec-08 07:15 225 7.8
2019-Dec-08 07:09 245 7.2
2019-Dec-08 07:03 249 1 gusting 3 7.8
2019-Dec-08 07:00 241 1 gusting 3 7.2
2019-Dec-08 06:54 274 0 gusting 3 7.2
2019-Dec-08 06:48 240 1 gusting 3 7.2
2019-Dec-08 06:45 222 1 gusting 3 7.2
2019-Dec-08 06:39 267 1 gusting 4 7.2
2019-Dec-08 06:33 242 1 gusting 4 7.2
2019-Dec-08 06:30 203 1 gusting 4 7.2
2019-Dec-08 06:24 216 0 gusting 4 7.2
2019-Dec-08 06:18 272 1 gusting 3 7.2
2019-Dec-08 06:15 257 1 gusting 3 7.2
2019-Dec-08 06:09 261 1 gusting 2 7.2
2019-Dec-08 06:03 216 0 gusting 1 7.2
2019-Dec-08 06:00 192 0 gusting 2 7.2
2019-Dec-08 05:54 227 0 gusting 3 7.2
2019-Dec-08 05:48 240 1 gusting 3 7.2
2019-Dec-08 05:45 251 7.2
2019-Dec-08 05:39 226 6.7
2019-Dec-08 05:33 218 6.7
2019-Dec-08 05:30 178 6.7
2019-Dec-08 05:24 210 6.7
2019-Dec-08 05:18 282 0 gusting 1 6.7
2019-Dec-08 05:15 256 0 gusting 3 6.7
2019-Dec-08 05:09 222 0 gusting 3 6.7
2019-Dec-08 05:03 195 6.7
2019-Dec-08 05:00 186 0 gusting 1 6.7
2019-Dec-08 04:54 181 6.7
2019-Dec-08 04:48 181 6.7
2019-Dec-08 04:45 181 6.7
2019-Dec-08 04:39 210 6.7
2019-Dec-08 04:33 232 7.2
2019-Dec-08 04:30 236 7.2
2019-Dec-08 04:24 240 1 gusting 3 7.2
2019-Dec-08 04:18 255 1 gusting 3 7.2
2019-Dec-08 04:15 264 1 gusting 3 7.2
2019-Dec-08 04:09 228 1 gusting 3 7.2
2019-Dec-08 04:03 260 0 gusting 6 7.2
2019-Dec-08 04:00 271 1 gusting 6 7.2
2019-Dec-08 03:54 281 1 gusting 6 7.2
2019-Dec-08 03:48 282 1 gusting 4 7.2
2019-Dec-08 03:45 267 1 gusting 4 7.2
2019-Dec-08 03:39 269 1 gusting 3 7.2
2019-Dec-08 03:33 274 1 gusting 5 7.2
2019-Dec-08 03:30 271 0 gusting 5 7.2
2019-Dec-08 03:24 266 2 gusting 5 7.2
2019-Dec-08 03:18 258 2 gusting 3 7.2
2019-Dec-08 03:15 266 1 gusting 4 7.2
2019-Dec-08 03:09 300 1 gusting 4 7.2
2019-Dec-08 03:03 300 1 gusting 6 6.7
2019-Dec-08 03:00 289 0 gusting 6 6.7
2019-Dec-08 02:54 293 3 gusting 8 6.7
2019-Dec-08 02:48 295 3 gusting 8 7.2
2019-Dec-08 02:45 266 2 gusting 5 7.2
2019-Dec-08 02:39 262 0 gusting 3 7.2
2019-Dec-08 02:33 194 1 gusting 3 6.7
2019-Dec-08 02:30 181 6.7
2019-Dec-08 02:24 192 0 gusting 1 6.7
2019-Dec-08 02:18 241 0 gusting 2 6.7
2019-Dec-08 02:15 232 6.7
2019-Dec-08 02:09 255 0 gusting 3 7.2
2019-Dec-08 02:03 231 1 gusting 2 6.7
2019-Dec-08 02:00 221 6.1
2019-Dec-08 01:54 199 0 gusting 1 6.7
2019-Dec-08 01:48 227 7.2
2019-Dec-08 01:45 258 0 gusting 2 7.2
2019-Dec-08 01:39 275 0 gusting 3 7.8
2019-Dec-08 01:33 281 0 gusting 3 7.8
2019-Dec-08 01:30 299 1 gusting 3 7.8
2019-Dec-08 01:24 302 0 gusting 1 7.2
2019-Dec-08 01:18 251 7.2
2019-Dec-08 01:15 248 7.8
2019-Dec-08 01:09 258 0 gusting 2 7.8
2019-Dec-08 01:03 353 0 gusting 1 7.8
2019-Dec-08 01:00 012 7.8
2019-Dec-08 00:54 063 0 gusting 1 7.8
2019-Dec-08 00:48 135 0 gusting 1 7.8
2019-Dec-08 00:45 135 7.2
2019-Dec-08 00:39 070 7.2
2019-Dec-08 00:33 046 7.2
2019-Dec-08 00:30 045 7.2
2019-Dec-08 00:24 059 7.8
2019-Dec-08 00:18 181 7.8
2019-Dec-08 00:15 181 7.8
2019-Dec-08 00:09 181 0 gusting 1 7.2
2019-Dec-08 00:03 181 0 gusting 1 7.2
2019-Dec-08 00:00 181 7.2
2019-Dec-07 23:54 181 7.2
2019-Dec-07 23:48 191 7.8
2019-Dec-07 23:45 205 0 gusting 1 7.8
2019-Dec-07 23:39 256 7.8
2019-Dec-07 23:33 259 0 gusting 2 7.8
2019-Dec-07 23:30 253 0 gusting 2 7.8
2019-Dec-07 23:24 246 0 gusting 1 7.2
2019-Dec-07 23:18 270 7.8
2019-Dec-07 23:15 270 7.8
2019-Dec-07 23:09 261 7.8
2019-Dec-07 23:03 269 7.8
2019-Dec-07 23:00 270 7.8
2019-Dec-07 22:54 272 0 gusting 2 7.8
2019-Dec-07 22:48 290 1 gusting 2 7.8
2019-Dec-07 22:45 309 0 gusting 1 7.2
2019-Dec-07 22:39 314 7.2
2019-Dec-07 22:33 314 7.8
2019-Dec-07 22:30 325 7.8
2019-Dec-07 22:24 336 7.8
2019-Dec-07 22:18 330 1 gusting 1 7.2
2019-Dec-07 22:15 327 0 gusting 1 7.2
2019-Dec-07 22:09 318 1 gusting 1 7.2
2019-Dec-07 22:03 314 7.2
2019-Dec-07 22:00 304 7.2
2019-Dec-07 21:54 270 7.2
2019-Dec-07 21:48 270 7.8
2019-Dec-07 21:45 270 7.8
2019-Dec-07 21:39 270 7.2
2019-Dec-07 21:33 270 7.2
2019-Dec-07 21:30 270 0 gusting 1 7.2
2019-Dec-07 21:24 284 7.2
2019-Dec-07 21:18 314 7.2
2019-Dec-07 21:15 326 7.2
2019-Dec-07 21:09 004 7.2
2019-Dec-07 21:03 074 0 gusting 1 7.2
2019-Dec-07 21:00 090 7.2
2019-Dec-07 20:54 133 0 gusting 1 7.2
2019-Dec-07 20:48 197 7.2
2019-Dec-07 20:45 206 7.2
2019-Dec-07 20:39 202 6.7
2019-Dec-07 20:33 199 6.7
2019-Dec-07 20:30 212 6.7
2019-Dec-07 20:24 225 7.2
2019-Dec-07 20:18 225 7.2
2019-Dec-07 20:15 225 7.2
2019-Dec-07 20:09 7.2
2019-Dec-07 20:03 7.2
2019-Dec-07 20:00 225 7.2
2019-Dec-07 19:54 235 7.2
2019-Dec-07 19:48 292 7.2
2019-Dec-07 19:45 001 7.2
2019-Dec-07 19:39 001 7.2
2019-Dec-07 19:33 332 0 gusting 1 7.2
2019-Dec-07 19:30 318 0 gusting 1 7.2
2019-Dec-07 19:24 198 7.2
2019-Dec-07 19:18 185 7.2
2019-Dec-07 19:15 181 0 gusting 1 7.2
2019-Dec-07 19:09 139 7.2
2019-Dec-07 19:03 135 7.2
2019-Dec-07 19:00 130 7.8
2019-Dec-07 18:54 112 7.8
2019-Dec-07 18:48 045 7.8
2019-Dec-07 18:45 045 7.8
2019-Dec-07 18:39 045 7.8
2019-Dec-07 18:33 038 7.8
2019-Dec-07 18:30 018 0 gusting 1 7.8
2019-Dec-07 18:24 330 0 gusting 1 7.8
2019-Dec-07 18:18 244 0 gusting 1 7.8
2019-Dec-07 18:15 225 8.3
2019-Dec-07 18:09 225 8.3
2019-Dec-07 18:03 225 0 gusting 1 8.3
2019-Dec-07 18:00 238 0 gusting 2 8.3
2019-Dec-07 17:54 262 0 gusting 2 8.3
2019-Dec-07 17:48 275 8.3
2019-Dec-07 17:45 282 8.3
2019-Dec-07 17:39 275 1 gusting 1 8.3
2019-Dec-07 17:33 181 7.8
2019-Dec-07 17:30 181 7.8
2019-Dec-07 17:24 181 7.8
2019-Dec-07 17:18 181 0 gusting 1 7.8
2019-Dec-07 17:15 181 7.8
2019-Dec-07 17:09 169 7.8
2019-Dec-07 17:03 208 7.8
2019-Dec-07 17:00 251 8.3